TimeMST,TemperatureF,Dew PointF,Humidity,Sea Level PressureIn,VisibilityMPH,Wind Direction,Wind SpeedMPH,Gust SpeedMPH,PrecipitationIn,Events,Conditions,WindDirDegrees,DateUTC
12:53 AM,23.0,19.0,85,30.34,10.0,West,3.5,-,N/A,,Clear,260,2013-11-07 07:53:00
1:53 AM,23.0,19.0,85,30.33,10.0,NNW,4.6,-,N/A,,Clear,340,2013-11-07 08:53:00
2:53 AM,19.0,16.0,88,30.34,10.0,WSW,5.8,-,N/A,,Clear,250,2013-11-07 09:53:00
3:53 AM,21.9,18.0,85,30.35,10.0,West,3.5,-,N/A,,Clear,260,2013-11-07 10:53:00
4:53 AM,19.9,17.1,89,30.35,10.0,WNW,3.5,-,N/A,,Clear,290,2013-11-07 11:53:00
5:53 AM,19.9,18.0,92,30.34,10.0,WNW,3.5,-,N/A,,Clear,300,2013-11-07 12:53:00
6:53 AM,19.0,16.0,88,30.35,10.0,Calm,Calm,-,N/A,,Clear,0,2013-11-07 13:53:00
7:53 AM,17.1,15.1,92,30.35,10.0,Calm,Calm,-,N/A,,Clear,0,2013-11-07 14:53:00
8:53 AM,21.9,19.0,89,30.35,10.0,SSE,3.5,-,N/A,,Clear,160,2013-11-07 15:53:00
9:53 AM,28.9,19.9,69,30.32,10.0,Calm,Calm,-,N/A,,Clear,0,2013-11-07 16:53:00
1:53 PM,46.0,23.0,40,30.04,10.0,SE,13.8,-,N/A,,Unknown,140,2013-11-07 20:53:00
2:53 PM,45.0,21.9,40,30.01,10.0,SSE,12.7,-,N/A,,Clear,150,2013-11-07 21:53:00
3:53 PM,44.1,21.9,42,29.96,10.0,ESE,12.7,-,N/A,,Overcast,120,2013-11-07 22:53:00
4:53 PM,43.0,19.9,40,29.92,10.0,ESE,12.7,-,N/A,,Overcast,120,2013-11-07 23:53:00
5:53 PM,43.0,19.0,38,29.88,10.0,ESE,13.8,-,N/A,,Overcast,110,2013-11-08 00:53:00
6:53 PM,42.1,21.0,43,29.84,10.0,ESE,15.0,-,N/A,,Overcast,120,2013-11-08 01:53:00
7:53 PM,39.9,27.0,60,29.79,10.0,ESE,17.3,-,0.00,Rain,Light Rain,110,2013-11-08 02:53:00
8:53 PM,37.9,30.9,76,29.73,10.0,East,17.3,-,0.01,,Overcast,100,2013-11-08 03:53:00
9:53 PM,37.9,28.9,70,29.68,10.0,ESE,24.2,-,N/A,,Overcast,120,2013-11-08 04:53:00
10:53 PM,39.0,28.0,65,29.64,10.0,ESE,18.4,-,N/A,,Overcast,120,2013-11-08 05:53:00
11:53 PM,37.9,28.0,68,29.62,10.0,ESE,12.7,-,N/A,,Overcast,120,2013-11-08 06:53:00